Time;durP1;ratioP1;P1;durP2;ratioP2;P2;SDS_P1;SDS_P2;PMS_P1;PMS_P2;Temp;Humidity;BMP_temperature;BMP_pressure;BME280_temperature;BME280_humidity;BME280_pressure;Samples;Min_cycle;Max_cycle;Signal;HPM_P1;HPM_P2
2024/03/05 00:02:14;;;;;;;77.05;30.85;;;;;;;;;;5091979;28;20042;-81
2024/03/05 00:04:40;;;;;;;72.88;31.73;;;;;;;;;;5069361;28;20487;-81
2024/03/05 00:07:09;;;;;;;76.45;31.92;;;;;;;;;;5058109;28;20036;-80
2024/03/05 00:09:36;;;;;;;71.88;30.58;;;;;;;;;;5086333;28;20057;-80
2024/03/05 00:12:02;;;;;;;76.22;31.25;;;;;;;;;;5056935;28;20039;-80
2024/03/05 00:14:28;;;;;;;70.15;29.33;;;;;;;;;;5055942;28;20032;-80
2024/03/05 00:16:56;;;;;;;79.82;33.45;;;;;;;;;;5097299;28;20070;-80
2024/03/05 00:19:21;;;;;;;86.53;34.67;;;;;;;;;;5083702;28;20020;-80
2024/03/05 00:21:50;;;;;;;78.93;33.08;;;;;;;;;;5101673;28;20033;-81
2024/03/05 00:24:15;;;;;;;85.75;34.80;;;;;;;;;;5084496;28;20023;-80
2024/03/05 00:26:42;;;;;;;84.05;33.90;;;;;;;;;;5084358;28;20032;-81
2024/03/05 00:29:08;;;;;;;87.53;34.65;;;;;;;;;;5084692;28;20028;-80
2024/03/05 00:31:39;;;;;;;88.15;35.78;;;;;;;;;;5063289;28;20029;-80
2024/03/05 00:34:06;;;;;;;85.68;34.70;;;;;;;;;;5071516;28;20041;-79
2024/03/05 00:36:33;;;;;;;88.50;35.08;;;;;;;;;;5088513;28;20047;-80
2024/03/05 00:39:03;;;;;;;80.60;34.65;;;;;;;;;;5088768;28;20046;-80
2024/03/05 00:41:28;;;;;;;82.20;35.25;;;;;;;;;;5055932;28;20036;-79
2024/03/05 00:43:57;;;;;;;75.82;33.53;;;;;;;;;;5071115;28;20095;-79
2024/03/05 00:46:23;;;;;;;88.63;35.60;;;;;;;;;;5054328;28;20098;-82
2024/03/05 00:48:50;;;;;;;83.50;32.97;;;;;;;;;;5069973;28;20063;-80
2024/03/05 00:51:15;;;;;;;82.03;33.80;;;;;;;;;;5053955;28;20092;-79
2024/03/05 00:53:41;;;;;;;78.20;32.40;;;;;;;;;;5086230;28;20028;-79
2024/03/05 00:56:06;;;;;;;68.53;31.00;;;;;;;;;;5055407;28;20029;-80
2024/03/05 00:58:33;;;;;;;87.57;34.42;;;;;;;;;;5070598;28;20139;-80
2024/03/05 01:01:01;;;;;;;79.97;32.27;;;;;;;;;;5067488;28;20494;-81
2024/03/05 01:03:28;;;;;;;86.22;34.55;;;;;;;;;;5071917;28;20513;-79
2024/03/05 01:05:53;;;;;;;76.18;33.08;;;;;;;;;;5057119;28;20064;-80
2024/03/05 01:08:19;;;;;;;87.30;34.60;;;;;;;;;;5052980;28;20043;-80
2024/03/05 01:10:45;;;;;;;81.30;33.05;;;;;;;;;;5057176;28;20051;-79
2024/03/05 01:13:11;;;;;;;84.85;33.78;;;;;;;;;;5053354;28;20044;-80
2024/03/05 01:15:37;;;;;;;80.07;34.83;;;;;;;;;;5068570;28;20043;-79
2024/03/05 01:18:03;;;;;;;84.80;34.20;;;;;;;;;;5054128;28;20033;-80
2024/03/05 01:20:29;;;;;;;80.68;35.25;;;;;;;;;;5088573;28;20487;-80
2024/03/05 01:22:55;;;;;;;81.47;34.10;;;;;;;;;;5052821;28;20040;-80
2024/03/05 01:25:20;;;;;;;87.63;36.95;;;;;;;;;;5069843;28;20032;-80
2024/03/05 01:27:47;;;;;;;81.75;35.58;;;;;;;;;;5069703;28;20044;-81
2024/03/05 01:30:14;;;;;;;88.55;36.53;;;;;;;;;;5053739;28;20063;-80
2024/03/05 01:32:44;;;;;;;88.45;37.50;;;;;;;;;;5086190;28;20040;-81
2024/03/05 01:35:11;;;;;;;83.13;34.42;;;;;;;;;;5051734;28;20580;-79
2024/03/05 01:37:37;;;;;;;108.65;39.28;;;;;;;;;;5068480;28;20826;-80
2024/03/05 01:40:06;;;;;;;99.55;37.33;;;;;;;;;;5054254;28;20056;-80
2024/03/05 01:42:34;;;;;;;;;;;;;;;;;;5053190;28;20037;-79
2024/03/05 01:45:00;;;;;;;101.63;38.50;;;;;;;;;;5054469;28;19912;-80
2024/03/05 01:47:26;;;;;;;108.50;38.95;;;;;;;;;;5082612;28;20036;-81
2024/03/05 01:49:59;;;;;;;106.32;39.40;;;;;;;;;;5048821;28;20032;-81
2024/03/05 01:52:38;;;;;;;114.68;40.25;;;;;;;;;;5064513;28;20024;-80
2024/03/05 01:55:09;;;;;;;;;;;;;;;;;;5588045;23;20053;-80
2024/03/05 01:58:45;;;;;;;110.93;42.38;;;;;;;;;;5023254;28;19920;-79
2024/03/05 02:02:13;;;;;;;114.75;40.42;;;;;;;;;;5022512;28;20053;-80
2024/03/05 02:05:36;;;;;;;123.75;43.58;;;;;;;;;;5023756;28;20064;-79
2024/03/05 02:09:31;;;;;;;128.38;42.80;;;;;;;;;;4992664;28;20052;-79
2024/03/05 02:12:28;;;;;;;133.20;42.83;;;;;;;;;;5010938;28;20092;-79
2024/03/05 02:15:54;;;;;;;135.50;44.15;;;;;;;;;;5316815;22;20072;-79
2024/03/05 02:18:22;;;;;;;126.53;45.47;;;;;;;;;;5013113;28;20029;-80
2024/03/05 02:20:49;;;;;;;134.38;44.60;;;;;;;;;;5010705;28;20030;-79
2024/03/05 02:23:16;;;;;;;130.00;43.75;;;;;;;;;;5011864;28;20061;-80
2024/03/05 02:25:42;;;;;;;142.77;47.10;;;;;;;;;;5016832;28;20048;-80
2024/03/05 02:28:08;;;;;;;130.10;43.53;;;;;;;;;;5003265;28;20038;-80
2024/03/05 02:30:36;;;;;;;125.00;42.90;;;;;;;;;;4986983;28;20010;-79
2024/03/05 02:33:07;;;;;;;128.02;42.85;;;;;;;;;;5000759;28;20081;-80
2024/03/05 02:35:35;;;;;;;124.65;43.50;;;;;;;;;;5015877;28;20077;-80
2024/03/05 02:38:01;;;;;;;119.72;42.97;;;;;;;;;;4990410;28;20100;-79
2024/03/05 02:40:27;;;;;;;118.78;41.78;;;;;;;;;;4972527;28;20038;-80
2024/03/05 02:42:53;;;;;;;132.32;43.15;;;;;;;;;;4989066;28;20041;-80
2024/03/05 02:45:19;;;;;;;130.63;44.88;;;;;;;;;;4988734;28;20034;-81
2024/03/05 02:47:47;;;;;;;132.52;44.05;;;;;;;;;;4973570;28;20049;-80
2024/03/05 02:50:13;;;;;;;133.48;44.95;;;;;;;;;;4989719;28;20065;-80
2024/03/05 02:52:40;;;;;;;134.18;44.67;;;;;;;;;;4974908;28;20038;-80
2024/03/05 02:55:09;;;;;;;119.88;41.38;;;;;;;;;;5008447;28;20045;-79
2024/03/05 02:57:44;;;;;;;127.25;43.08;;;;;;;;;;4992613;28;20034;-80
2024/03/05 03:00:18;;;;;;;128.20;42.80;;;;;;;;;;5006122;28;20026;-80
2024/03/05 03:02:51;;;;;;;131.13;41.42;;;;;;;;;;4990514;28;20044;-80
2024/03/05 03:05:21;;;;;;;133.38;43.40;;;;;;;;;;4995769;28;20073;-80
2024/03/05 03:07:47;;;;;;;120.20;42.78;;;;;;;;;;4985438;28;20018;-79
2024/03/05 03:10:13;;;;;;;115.45;42.40;;;;;;;;;;4986384;28;20035;-79
2024/03/05 03:12:39;;;;;;;113.13;40.60;;;;;;;;;;5002430;28;20035;-79
2024/03/05 03:15:06;;;;;;;123.32;42.28;;;;;;;;;;4986055;28;20102;-79
2024/03/05 03:17:41;;;;;;;118.45;41.05;;;;;;;;;;5000981;28;20058;-80
2024/03/05 03:20:16;;;;;;;136.75;43.47;;;;;;;;;;5011715;28;20030;-81
2024/03/05 03:22:49;;;;;;;136.07;42.25;;;;;;;;;;4987492;28;20056;-79
2024/03/05 03:25:18;;;;;;;126.63;41.70;;;;;;;;;;4965374;28;20583;-79
2024/03/05 03:27:47;;;;;;;127.38;42.95;;;;;;;;;;4942093;28;20540;-79
2024/03/05 03:30:26;;;;;;;118.95;40.30;;;;;;;;;;4980871;28;20066;-79
2024/03/05 03:33:17;;;;;;;128.43;43.50;;;;;;;;;;4946970;28;20082;-80
2024/03/05 03:35:49;;;;;;;136.77;41.40;;;;;;;;;;4937256;29;20072;-79
2024/03/05 03:38:24;;;;;;;126.83;42.23;;;;;;;;;;4945443;28;20494;-79
2024/03/05 03:41:05;;;;;;;127.45;40.10;;;;;;;;;;4979924;28;20090;-79
2024/03/05 03:43:36;;;;;;;125.68;37.80;;;;;;;;;;4948948;28;20115;-80
2024/03/05 03:46:05;;;;;;;124.57;39.38;;;;;;;;;;4930052;29;20054;-79
2024/03/05 03:48:31;;;;;;;126.13;41.00;;;;;;;;;;4963039;29;20031;-80
2024/03/05 03:51:00;;;;;;;122.95;39.08;;;;;;;;;;4961217;29;20043;-80
2024/03/05 03:53:30;;;;;;;129.27;40.80;;;;;;;;;;4946823;29;20530;-79
2024/03/05 03:56:02;;;;;;;119.37;38.50;;;;;;;;;;4946461;29;20039;-80
2024/03/05 03:58:28;;;;;;;107.50;37.10;;;;;;;;;;4927530;29;20031;-81
2024/03/05 04:00:53;;;;;;;119.22;38.72;;;;;;;;;;4931137;29;20043;-79
2024/03/05 04:03:19;;;;;;;113.38;37.33;;;;;;;;;;4949571;28;20046;-80
2024/03/05 04:05:46;;;;;;;124.22;39.70;;;;;;;;;;4984082;28;20035;-80
2024/03/05 04:08:12;;;;;;;129.73;41.80;;;;;;;;;;4968050;28;20042;-81
2024/03/05 04:10:37;;;;;;;124.68;39.67;;;;;;;;;;4951861;28;20034;-79
2024/03/05 04:13:06;;;;;;;88.70;29.35;;;;;;;;;;4999362;28;20110;-80
2024/03/05 04:15:35;;;;;;;106.22;37.50;;;;;;;;;;4981746;28;20039;-79
2024/03/05 04:18:00;;;;;;;119.60;39.22;;;;;;;;;;4982851;28;20051;-80
2024/03/05 04:20:26;;;;;;;110.93;37.00;;;;;;;;;;4949018;28;20525;-80
2024/03/05 04:22:53;;;;;;;115.97;37.00;;;;;;;;;;4980833;28;20030;-80
2024/03/05 04:25:25;;;;;;;111.32;37.25;;;;;;;;;;4998024;28;20114;-80
2024/03/05 04:28:12;;;;;;;109.43;36.80;;;;;;;;;;4980700;28;20038;-80
2024/03/05 04:30:48;;;;;;;126.82;40.42;;;;;;;;;;4981929;28;20031;-78
2024/03/05 04:33:28;;;;;;;135.68;42.92;;;;;;;;;;4999068;28;20039;-79
2024/03/05 04:36:09;;;;;;;130.82;41.35;;;;;;;;;;4980140;28;20043;-80
2024/03/05 04:38:38;;;;;;;126.22;39.88;;;;;;;;;;4966222;28;20410;-81
2024/03/05 04:41:18;;;;;;;123.95;40.63;;;;;;;;;;4982723;28;20035;-79
2024/03/05 04:43:46;;;;;;;131.65;40.20;;;;;;;;;;4981813;28;20038;-80
2024/03/05 04:46:17;;;;;;;126.88;39.80;;;;;;;;;;4993704;28;20022;-80
2024/03/05 04:48:47;;;;;;;115.00;38.17;;;;;;;;;;4950635;28;20042;-80
2024/03/05 04:51:14;;;;;;;133.93;39.60;;;;;;;;;;4986819;28;20479;-79
2024/03/05 04:53:39;;;;;;;122.03;38.97;;;;;;;;;;4973912;28;20069;-80
2024/03/05 04:56:09;;;;;;;125.15;39.40;;;;;;;;;;4976560;28;20058;-79
2024/03/05 04:58:35;;;;;;;124.28;40.28;;;;;;;;;;4994448;28;20034;-80
2024/03/05 05:01:02;;;;;;;123.32;40.15;;;;;;;;;;4977616;28;20081;-81
2024/03/05 05:03:28;;;;;;;127.53;39.17;;;;;;;;;;4973487;28;20039;-79
2024/03/05 05:05:55;;;;;;;115.15;38.55;;;;;;;;;;4988462;28;20057;-81
2024/03/05 05:08:22;;;;;;;120.07;39.33;;;;;;;;;;4972408;28;20038;-80
2024/03/05 05:10:49;;;;;;;132.10;39.80;;;;;;;;;;5005830;28;20034;-80
2024/03/05 05:13:16;;;;;;;123.68;38.53;;;;;;;;;;4973017;28;20054;-81
2024/03/05 05:15:42;;;;;;;114.43;39.53;;;;;;;;;;5004225;28;20034;-81
2024/03/05 05:18:09;;;;;;;127.13;40.85;;;;;;;;;;5006306;28;20066;-81
2024/03/05 05:20:34;;;;;;;133.77;41.50;;;;;;;;;;4988502;28;20023;-81
2024/03/05 05:23:00;;;;;;;128.93;39.15;;;;;;;;;;4956360;28;20110;-81
2024/03/05 05:25:26;;;;;;;125.03;38.20;;;;;;;;;;4971839;28;20045;-81
2024/03/05 05:27:52;;;;;;;139.48;41.55;;;;;;;;;;4985715;28;20034;-80
2024/03/05 05:30:19;;;;;;;135.50;39.60;;;;;;;;;;4997809;28;20073;-78
2024/03/05 05:32:45;;;;;;;116.30;38.42;;;;;;;;;;4966047;28;20039;-81
2024/03/05 05:35:11;;;;;;;131.10;40.85;;;;;;;;;;4965192;28;20395;-80
2024/03/05 05:37:37;;;;;;;119.20;38.33;;;;;;;;;;4965440;28;20046;-81
2024/03/05 05:40:04;;;;;;;125.28;39.42;;;;;;;;;;4965699;28;20065;-80
2024/03/05 05:42:29;;;;;;;129.13;40.40;;;;;;;;;;4983483;28;20069;-80
2024/03/05 05:44:55;;;;;;;127.55;38.92;;;;;;;;;;4985753;28;20034;-81
2024/03/05 05:47:22;;;;;;;121.35;39.58;;;;;;;;;;5002497;28;20141;-80
2024/03/05 05:49:47;;;;;;;118.50;38.88;;;;;;;;;;4969710;28;20038;-80
2024/03/05 05:52:13;;;;;;;98.60;33.88;;;;;;;;;;4984955;28;20069;-80
2024/03/05 05:54:46;;;;;;;90.82;34.05;;;;;;;;;;5001693;28;20045;-80
2024/03/05 05:57:14;;;;;;;88.00;32.53;;;;;;;;;;4987852;28;20129;-80
2024/03/05 05:59:43;;;;;;;74.57;30.92;;;;;;;;;;5035119;28;20027;-79
2024/03/05 06:02:14;;;;;;;64.95;29.30;;;;;;;;;;5004085;28;20034;-81
2024/03/05 06:04:43;;;;;;;63.05;29.48;;;;;;;;;;4987301;28;20022;-81
2024/03/05 06:07:11;;;;;;;60.65;29.00;;;;;;;;;;5003230;28;20045;-80
2024/03/05 06:09:40;;;;;;;59.70;29.77;;;;;;;;;;5001783;28;20030;-80
2024/03/05 06:12:06;;;;;;;63.97;30.88;;;;;;;;;;4984010;28;20026;-81
2024/03/05 06:14:31;;;;;;;64.10;30.65;;;;;;;;;;4986536;28;20084;-81
2024/03/05 06:16:57;;;;;;;57.97;28.70;;;;;;;;;;4969004;28;20130;-80
2024/03/05 06:19:26;;;;;;;73.80;30.67;;;;;;;;;;5002488;28;20486;-82
2024/03/05 06:21:52;;;;;;;61.92;29.45;;;;;;;;;;4969968;28;20022;-82
2024/03/05 06:24:18;;;;;;;62.20;27.60;;;;;;;;;;4968174;28;20415;-81
2024/03/05 06:26:45;;;;;;;60.25;28.27;;;;;;;;;;4983863;28;20034;-79
2024/03/05 06:29:13;;;;;;;58.65;26.88;;;;;;;;;;4984347;28;20516;-81
2024/03/05 06:31:39;;;;;;;57.45;28.92;;;;;;;;;;4983810;28;20038;-81
2024/03/05 06:34:10;;;;;;;60.15;29.52;;;;;;;;;;5000373;28;20406;-81
2024/03/05 06:36:36;;;;;;;61.95;28.25;;;;;;;;;;5001999;28;20037;-82
2024/03/05 06:39:18;;;;;;;53.80;27.00;;;;;;;;;;4970142;28;20037;-81
2024/03/05 06:41:47;;;;;;;61.63;29.40;;;;;;;;;;5002625;28;20031;-82
2024/03/05 06:44:20;;;;;;;64.65;29.60;;;;;;;;;;5000338;28;20037;-83
2024/03/05 06:46:46;;;;;;;60.40;30.02;;;;;;;;;;4985483;28;20034;-80
2024/03/05 06:49:14;;;;;;;59.58;28.38;;;;;;;;;;4990009;28;20050;-81
2024/03/05 06:56:39;;;;;;;62.20;30.55;;;;;;;;;;4976012;28;20057;-81
2024/03/05 06:57:14;;;;;;;61.55;29.42;;;;;;;;;;5025015;28;20126;-82
2024/03/05 06:59:39;;;;;;;64.68;28.38;;;;;;;;;;4986928;28;20490;-80
2024/03/05 07:02:05;;;;;;;57.72;27.83;;;;;;;;;;4986520;28;20019;-80
2024/03/05 07:04:31;;;;;;;56.92;27.17;;;;;;;;;;5002026;28;20030;-80
2024/03/05 07:06:56;;;;;;;61.65;28.00;;;;;;;;;;5002543;28;20125;-81
2024/03/05 07:09:27;;;;;;;55.25;26.67;;;;;;;;;;4974407;28;20030;-80
2024/03/05 07:11:53;;;;;;;52.65;25.15;;;;;;;;;;4991245;28;20038;-80
2024/03/05 07:14:19;;;;;;;51.03;25.02;;;;;;;;;;4965121;28;20038;-79
2024/03/05 07:16:49;;;;;;;52.63;25.27;;;;;;;;;;4996963;28;20386;-80
2024/03/05 07:19:14;;;;;;;58.85;25.50;;;;;;;;;;4974211;28;20125;-81
2024/03/05 07:21:40;;;;;;;58.83;26.30;;;;;;;;;;4984848;28;20119;-82
2024/03/05 07:24:06;;;;;;;51.80;24.52;;;;;;;;;;4967980;28;20054;-80
2024/03/05 07:26:37;;;;;;;48.40;23.08;;;;;;;;;;4986574;28;20041;-81
2024/03/05 07:29:03;;;;;;;48.22;23.63;;;;;;;;;;4998159;28;20038;-80
2024/03/05 07:31:29;;;;;;;51.63;24.42;;;;;;;;;;4984129;28;20050;-82
2024/03/05 07:33:55;;;;;;;46.05;22.70;;;;;;;;;;4966746;28;20038;-81
2024/03/05 07:36:22;;;;;;;50.55;22.20;;;;;;;;;;4982858;28;20038;-81
2024/03/05 07:38:48;;;;;;;47.90;23.02;;;;;;;;;;4984101;28;20209;-81
2024/03/05 07:41:14;;;;;;;47.22;23.10;;;;;;;;;;4989382;28;20077;-81
2024/03/05 07:43:43;;;;;;;49.03;23.05;;;;;;;;;;4991663;28;20034;-80
2024/03/05 07:46:08;;;;;;;48.60;23.45;;;;;;;;;;4981683;28;20030;-81
2024/03/05 07:48:35;;;;;;;45.03;24.30;;;;;;;;;;4980654;28;20445;-82
2024/03/05 07:51:01;;;;;;;51.35;23.75;;;;;;;;;;5015360;28;20061;-80
2024/03/05 07:53:26;;;;;;;52.55;24.25;;;;;;;;;;4965988;28;20034;-79
2024/03/05 07:55:52;;;;;;;52.58;23.85;;;;;;;;;;4983611;28;20069;-81
2024/03/05 07:58:18;;;;;;;50.95;23.92;;;;;;;;;;5016983;28;20481;-81
2024/03/05 08:00:43;;;;;;;49.70;24.40;;;;;;;;;;4966897;28;20119;-81
2024/03/05 08:03:10;;;;;;;51.67;23.35;;;;;;;;;;4984149;28;20053;-81
2024/03/05 08:05:35;;;;;;;48.25;23.42;;;;;;;;;;4967804;28;20125;-79
2024/03/05 08:08:01;;;;;;;50.75;23.30;;;;;;;;;;4983706;28;20461;-81
2024/03/05 08:10:27;;;;;;;50.65;24.63;;;;;;;;;;4998639;28;20106;-81
2024/03/05 08:12:55;;;;;;;50.78;24.20;;;;;;;;;;4982759;28;20091;-81
2024/03/05 08:15:21;;;;;;;51.57;24.33;;;;;;;;;;4979654;28;20050;-79
2024/03/05 08:17:48;;;;;;;56.10;25.77;;;;;;;;;;4982458;28;20034;-81
2024/03/05 08:20:15;;;;;;;52.83;24.30;;;;;;;;;;4951515;28;20031;-81
2024/03/05 08:22:42;;;;;;;54.72;25.35;;;;;;;;;;4983729;28;20026;-79
2024/03/05 08:25:12;;;;;;;55.03;25.60;;;;;;;;;;4985587;28;20513;-81
2024/03/05 08:27:38;;;;;;;61.63;26.55;;;;;;;;;;4986097;28;20030;-81
2024/03/05 08:30:08;;;;;;;52.30;23.88;;;;;;;;;;4986423;28;20052;-81
2024/03/05 08:32:39;;;;;;;50.05;24.80;;;;;;;;;;4981777;28;20039;-80
2024/03/05 08:35:11;;;;;;;53.90;25.48;;;;;;;;;;4998061;28;20034;-79
2024/03/05 08:37:47;;;;;;;53.17;24.95;;;;;;;;;;4988417;28;20031;-80
2024/03/05 08:40:13;;;;;;;52.90;23.70;;;;;;;;;;4986917;28;20150;-80
2024/03/05 08:42:42;;;;;;;51.63;24.35;;;;;;;;;;4987799;28;20154;-81
2024/03/05 08:45:09;;;;;;;49.47;24.20;;;;;;;;;;4986421;28;20392;-81
2024/03/05 08:47:35;;;;;;;50.33;24.65;;;;;;;;;;4956307;28;20101;-81
2024/03/05 08:50:03;;;;;;;50.42;24.38;;;;;;;;;;4992898;28;20045;-79
2024/03/05 08:52:29;;;;;;;52.70;24.13;;;;;;;;;;5012647;28;20039;-81
2024/03/05 08:54:57;;;;;;;52.53;24.95;;;;;;;;;;4987365;28;20038;-82
2024/03/05 08:57:25;;;;;;;52.37;24.57;;;;;;;;;;4988313;28;20026;-80
2024/03/05 08:59:51;;;;;;;48.27;23.87;;;;;;;;;;5004639;28;20040;-80
2024/03/05 09:02:17;;;;;;;53.15;24.05;;;;;;;;;;4987601;28;20038;-82
2024/03/05 09:04:42;;;;;;;50.97;24.20;;;;;;;;;;5002946;28;20092;-81
2024/03/05 09:07:09;;;;;;;55.05;24.52;;;;;;;;;;5008261;28;20031;-80
2024/03/05 09:09:34;;;;;;;47.60;23.52;;;;;;;;;;5004411;28;20026;-81
2024/03/05 09:12:00;;;;;;;52.53;25.08;;;;;;;;;;4988872;28;20030;-81
2024/03/05 09:14:26;;;;;;;50.13;22.95;;;;;;;;;;4986470;28;20066;-81
2024/03/05 09:16:52;;;;;;;56.17;26.40;;;;;;;;;;5004442;28;20031;-81
2024/03/05 09:19:20;;;;;;;50.25;23.52;;;;;;;;;;4986670;28;20031;-80
2024/03/05 09:21:45;;;;;;;46.97;22.55;;;;;;;;;;4970220;28;20030;-80
2024/03/05 09:24:12;;;;;;;47.53;22.98;;;;;;;;;;4986510;28;20069;-79
2024/03/05 09:26:38;;;;;;;49.85;24.13;;;;;;;;;;4986301;28;20090;-79
2024/03/05 09:29:04;;;;;;;54.83;24.30;;;;;;;;;;5002492;28;20089;-80
2024/03/05 09:31:30;;;;;;;53.22;23.80;;;;;;;;;;4971068;28;20105;-81
2024/03/05 09:33:55;;;;;;;47.47;23.00;;;;;;;;;;4970504;28;20042;-81
2024/03/05 09:36:21;;;;;;;48.45;23.35;;;;;;;;;;4971530;28;20098;-79
2024/03/05 09:38:49;;;;;;;55.90;23.88;;;;;;;;;;4985614;28;20130;-81
2024/03/05 09:41:15;;;;;;;46.78;23.30;;;;;;;;;;4987632;28;20026;-80
2024/03/05 09:43:41;;;;;;;47.08;22.48;;;;;;;;;;4975069;28;20034;-81
2024/03/05 09:46:07;;;;;;;47.17;22.00;;;;;;;;;;4988861;28;20545;-80
2024/03/05 09:48:38;;;;;;;49.75;23.80;;;;;;;;;;4989826;28;20031;-81
2024/03/05 09:51:07;;;;;;;51.55;23.73;;;;;;;;;;4972800;28;20035;-80
2024/03/05 09:53:33;;;;;;;59.88;24.25;;;;;;;;;;4987901;28;20034;-79
2024/03/05 09:56:00;;;;;;;47.08;24.83;;;;;;;;;;4985779;28;20118;-80
2024/03/05 09:58:36;;;;;;;53.38;25.70;;;;;;;;;;4998416;28;20031;-80
2024/03/05 10:01:03;;;;;;;50.83;24.00;;;;;;;;;;4997762;28;20030;-79
2024/03/05 10:03:31;;;;;;;53.28;25.35;;;;;;;;;;4980940;28;20061;-80
2024/03/05 10:05:56;;;;;;;48.92;24.52;;;;;;;;;;4982155;28;20090;-80
2024/03/05 10:08:22;;;;;;;49.17;23.50;;;;;;;;;;4965561;28;20120;-80
2024/03/05 10:10:59;;;;;;;59.70;29.42;;;;;;;;;;4964421;28;20549;-81
2024/03/05 10:13:26;;;;;;;50.40;24.60;;;;;;;;;;4949911;28;20035;-80
2024/03/05 10:15:51;;;;;;;51.03;24.75;;;;;;;;;;4965759;28;20046;-81
2024/03/05 10:18:29;;;;;;;54.20;26.67;;;;;;;;;;4999669;28;20422;-81
2024/03/05 10:20:55;;;;;;;51.95;25.23;;;;;;;;;;4967173;28;20030;-79
2024/03/05 10:23:21;;;;;;;52.65;23.95;;;;;;;;;;4985443;28;20031;-82
2024/03/05 10:25:47;;;;;;;51.97;24.40;;;;;;;;;;4967583;28;20083;-81
2024/03/05 10:28:18;;;;;;;46.47;24.23;;;;;;;;;;4950489;28;20038;-79
2024/03/05 10:30:46;;;;;;;54.80;24.85;;;;;;;;;;4965063;28;20038;-81
2024/03/05 10:33:13;;;;;;;44.75;23.02;;;;;;;;;;4980695;28;20026;-80
2024/03/05 10:35:41;;;;;;;46.70;24.83;;;;;;;;;;4964425;28;20035;-80
2024/03/05 10:38:08;;;;;;;45.80;23.70;;;;;;;;;;4965650;28;20026;-81
2024/03/05 10:40:37;;;;;;;52.40;23.88;;;;;;;;;;4982283;28;20027;-82
2024/03/05 10:43:04;;;;;;;50.78;24.88;;;;;;;;;;4964636;28;20027;-81
2024/03/05 10:45:37;;;;;;;49.38;24.60;;;;;;;;;;4984461;28;20062;-80
2024/03/05 10:48:07;;;;;;;52.58;24.42;;;;;;;;;;4968710;28;20105;-80
2024/03/05 10:50:35;;;;;;;49.13;25.30;;;;;;;;;;4985474;28;20105;-80
2024/03/05 10:53:04;;;;;;;46.25;24.45;;;;;;;;;;5000783;28;20053;-81
2024/03/05 10:55:33;;;;;;;54.77;26.63;;;;;;;;;;4983309;28;20496;-81
2024/03/05 11:00:38;;;;;;;49.95;25.17;;;;;;;;;;4999783;28;20037;-80
2024/03/05 11:03:11;;;;;;;55.30;26.50;;;;;;;;;;4966755;28;20087;-81
2024/03/05 11:05:50;;;;;;;61.20;26.88;;;;;;;;;;4998341;28;20397;-80
2024/03/05 11:08:19;;;;;;;51.58;26.00;;;;;;;;;;4999163;28;20117;-80
2024/03/05 11:10:47;;;;;;;53.03;29.05;;;;;;;;;;4986944;28;20061;-81
2024/03/05 11:13:14;;;;;;;52.20;26.42;;;;;;;;;;4965843;28;20085;-81
2024/03/05 11:15:39;;;;;;;53.60;26.67;;;;;;;;;;4980271;28;20064;-79
2024/03/05 11:18:23;;;;;;;51.80;26.25;;;;;;;;;;5010255;28;20544;-80
2024/03/05 11:20:49;;;;;;;59.35;28.02;;;;;;;;;;4969537;28;20129;-81
2024/03/05 11:23:14;;;;;;;51.33;26.17;;;;;;;;;;4997773;28;20058;-80
2024/03/05 11:25:46;;;;;;;56.03;26.77;;;;;;;;;;4998492;28;20432;-80
2024/03/05 11:28:13;;;;;;;56.50;28.95;;;;;;;;;;4964135;28;20046;-81
2024/03/05 11:30:41;;;;;;;67.35;31.88;;;;;;;;;;4990200;28;20030;-78
2024/03/05 11:33:12;;;;;;;290.88;98.45;;;;;;;;;;4981238;28;20447;-80
2024/03/05 11:35:41;;;;;;;61.17;29.83;;;;;;;;;;4981120;28;20034;-80
2024/03/05 11:38:10;;;;;;;49.10;23.77;;;;;;;;;;4975637;28;20062;-81
2024/03/05 11:40:36;;;;;;;46.92;23.13;;;;;;;;;;4974107;28;20478;-81
2024/03/05 11:43:03;;;;;;;48.22;24.42;;;;;;;;;;4968914;28;20027;-81
2024/03/05 11:45:42;;;;;;;42.38;23.05;;;;;;;;;;4973272;28;20051;-81
2024/03/05 11:48:09;;;;;;;50.53;23.65;;;;;;;;;;4996586;28;20022;-80
2024/03/05 11:50:35;;;;;;;52.05;24.42;;;;;;;;;;4991501;28;20197;-81
2024/03/05 11:53:00;;;;;;;48.17;24.35;;;;;;;;;;4984596;28;20039;-81
2024/03/05 11:55:28;;;;;;;42.50;23.02;;;;;;;;;;5016842;28;20098;-79
2024/03/05 11:57:57;;;;;;;47.85;22.48;;;;;;;;;;4995529;28;20026;-80
2024/03/05 12:00:23;;;;;;;49.55;25.17;;;;;;;;;;4978827;28;20439;-81
2024/03/05 12:02:58;;;;;;;45.50;23.58;;;;;;;;;;4999709;28;20413;-81
2024/03/05 12:05:24;;;;;;;44.20;22.80;;;;;;;;;;4988565;28;20023;-80
2024/03/05 12:08:16;;;;;;;43.15;23.77;;;;;;;;;;4987494;28;20030;-80
2024/03/05 12:10:42;;;;;;;44.38;24.38;;;;;;;;;;4985451;28;20117;-81
2024/03/05 12:13:08;;;;;;;45.63;24.30;;;;;;;;;;5002544;28;20054;-81
2024/03/05 12:15:38;;;;;;;50.40;24.65;;;;;;;;;;4974241;28;20105;-81
2024/03/05 12:18:10;;;;;;;45.15;24.10;;;;;;;;;;4967820;28;20037;-82
2024/03/05 12:20:41;;;;;;;51.05;23.75;;;;;;;;;;4995572;28;20026;-80
2024/03/05 12:23:07;;;;;;;49.33;24.60;;;;;;;;;;5007608;28;20038;-79
2024/03/05 12:25:33;;;;;;;47.70;24.55;;;;;;;;;;4987059;28;20049;-81
2024/03/05 12:28:00;;;;;;;44.08;23.58;;;;;;;;;;4995494;28;20073;-82
2024/03/05 12:30:33;;;;;;;44.92;24.60;;;;;;;;;;4987449;28;20037;-82
2024/03/05 12:33:00;;;;;;;43.20;22.70;;;;;;;;;;4982422;28;20038;-82
2024/03/05 12:35:26;;;;;;;43.63;23.40;;;;;;;;;;5000304;28;20030;-83
2024/03/05 12:37:52;;;;;;;47.55;23.98;;;;;;;;;;4976067;28;20108;-82
2024/03/05 12:40:18;;;;;;;46.97;23.35;;;;;;;;;;4969794;28;20446;-81
2024/03/05 12:42:48;;;;;;;42.83;24.35;;;;;;;;;;5001898;28;20038;-80
2024/03/05 12:45:15;;;;;;;48.15;24.17;;;;;;;;;;5001434;28;20057;-81
2024/03/05 12:47:41;;;;;;;46.78;23.50;;;;;;;;;;4968893;28;20050;-80
2024/03/05 12:50:07;;;;;;;54.78;26.75;;;;;;;;;;4979161;28;20031;-81
2024/03/05 12:52:34;;;;;;;46.75;23.52;;;;;;;;;;4969619;28;20469;-81
2024/03/05 12:55:03;;;;;;;44.13;23.37;;;;;;;;;;4966027;28;20037;-82
2024/03/05 12:57:30;;;;;;;44.58;22.98;;;;;;;;;;4998759;28;20030;-81
2024/03/05 13:00:00;;;;;;;46.13;23.58;;;;;;;;;;5001481;28;20171;-81
2024/03/05 13:02:30;;;;;;;45.88;24.25;;;;;;;;;;4992943;28;20042;-82
2024/03/05 13:04:56;;;;;;;43.60;22.77;;;;;;;;;;4959974;28;20069;-80
2024/03/05 13:07:21;;;;;;;42.38;22.52;;;;;;;;;;4981440;28;20030;-82
2024/03/05 13:09:48;;;;;;;44.75;23.83;;;;;;;;;;4960325;28;20508;-82
2024/03/05 13:12:17;;;;;;;38.65;22.30;;;;;;;;;;4982657;28;20030;-81
2024/03/05 13:14:42;;;;;;;49.95;24.00;;;;;;;;;;4983161;28;20030;-81
2024/03/05 13:17:09;;;;;;;46.05;22.90;;;;;;;;;;4986606;28;20060;-80
2024/03/05 13:19:36;;;;;;;42.85;23.10;;;;;;;;;;4974211;28;20081;-82
2024/03/05 13:22:01;;;;;;;46.55;23.55;;;;;;;;;;4964629;28;20030;-82
2024/03/05 13:24:27;;;;;;;42.47;22.05;;;;;;;;;;4999508;28;20081;-83
2024/03/05 13:26:53;;;;;;;48.90;23.10;;;;;;;;;;4996015;28;20046;-81
2024/03/05 13:29:19;;;;;;;45.42;22.95;;;;;;;;;;4979970;28;20030;-82
2024/03/05 13:31:45;;;;;;;45.33;22.73;;;;;;;;;;4995982;28;20046;-79
2024/03/05 13:34:11;;;;;;;41.70;22.17;;;;;;;;;;4986808;28;20031;-81
2024/03/05 13:36:38;;;;;;;40.03;20.88;;;;;;;;;;4962470;28;20034;-82
2024/03/05 13:39:11;;;;;;;48.88;22.98;;;;;;;;;;4994560;28;20116;-79
2024/03/05 13:41:37;;;;;;;41.85;22.13;;;;;;;;;;4980275;28;20022;-82
2024/03/05 13:44:04;;;;;;;42.00;21.15;;;;;;;;;;4983859;28;20085;-81
2024/03/05 13:46:29;;;;;;;44.78;22.63;;;;;;;;;;4983304;28;20035;-82
2024/03/05 13:48:58;;;;;;;43.65;22.98;;;;;;;;;;4982883;28;20035;-82
2024/03/05 13:51:26;;;;;;;38.88;20.83;;;;;;;;;;4984451;28;20029;-81
2024/03/05 13:53:51;;;;;;;43.40;22.23;;;;;;;;;;4989482;28;20042;-80
2024/03/05 13:56:17;;;;;;;40.83;21.30;;;;;;;;;;4987741;28;20093;-81
2024/03/05 13:58:44;;;;;;;40.60;22.55;;;;;;;;;;4971616;28;20055;-81
2024/03/05 14:01:11;;;;;;;41.95;21.38;;;;;;;;;;5013708;28;20584;-81
2024/03/05 14:03:37;;;;;;;35.72;18.73;;;;;;;;;;4965280;28;20026;-81
2024/03/05 14:06:04;;;;;;;38.90;20.02;;;;;;;;;;4984146;28;20030;-81
2024/03/05 14:08:30;;;;;;;36.10;19.25;;;;;;;;;;4959151;28;20046;-82
2024/03/05 14:10:57;;;;;;;32.78;18.52;;;;;;;;;;4984276;28;20510;-82
2024/03/05 14:13:22;;;;;;;37.75;19.92;;;;;;;;;;4981857;28;20500;-81
2024/03/05 14:15:49;;;;;;;38.55;19.48;;;;;;;;;;4965064;28;20113;-81
2024/03/05 14:18:15;;;;;;;33.15;17.58;;;;;;;;;;4964461;28;20433;-81
2024/03/05 14:20:41;;;;;;;36.78;19.05;;;;;;;;;;4971901;28;20077;-80
2024/03/05 14:23:11;;;;;;;43.20;19.42;;;;;;;;;;4953608;28;20034;-79
2024/03/05 14:25:37;;;;;;;37.85;19.23;;;;;;;;;;4958209;28;20096;-81
2024/03/05 14:28:02;;;;;;;33.15;16.90;;;;;;;;;;4984482;28;20030;-79
2024/03/05 14:30:29;;;;;;;33.80;18.17;;;;;;;;;;4993757;28;20050;-80